Time;durP1;ratioP1;P1;durP2;ratioP2;P2;SDS_P1;SDS_P2;PMS_P1;PMS_P2;Temp;Humidity;BMP_temperature;BMP_pressure;BME280_temperature;BME280_humidity;BME280_pressure;Samples;Min_cycle;Max_cycle;Signal;HPM_P1;HPM_P2
2022/01/10 00:01:48;;;;;;;2.30;1.30;;;;;;;;;;5049085;28;20397;-75
2022/01/10 00:04:14;;;;;;;2.88;1.38;;;;;;;;;;5052487;28;20109;-77
2022/01/10 00:06:40;;;;;;;1.67;1.20;;;;;;;;;;5049110;28;22083;-78
2022/01/10 00:09:07;;;;;;;1.95;1.30;;;;;;;;;;5051120;28;20504;-74
2022/01/10 00:11:33;;;;;;;1.63;1.40;;;;;;;;;;5053849;28;20048;-77
2022/01/10 00:13:59;;;;;;;5.07;1.20;;;;;;;;;;5050488;28;20139;-74
2022/01/10 00:16:26;;;;;;;2.75;1.20;;;;;;;;;;5055941;28;20045;-72
2022/01/10 00:18:52;;;;;;;3.72;1.30;;;;;;;;;;5059535;28;20084;-74
2022/01/10 00:21:18;;;;;;;4.75;1.35;;;;;;;;;;5058998;28;20040;-86
2022/01/10 00:23:45;;;;;;;3.17;1.20;;;;;;;;;;5051069;28;20735;-77
2022/01/10 00:26:10;;;;;;;5.20;1.35;;;;;;;;;;5055513;28;20209;-80
2022/01/10 00:28:38;;;;;;;3.65;1.30;;;;;;;;;;5057850;28;20159;-81
2022/01/10 00:31:04;;;;;;;4.85;1.30;;;;;;;;;;5058784;28;20061;-72
2022/01/10 00:33:30;;;;;;;2.13;1.27;;;;;;;;;;5057459;28;20698;-77
2022/01/10 00:35:57;;;;;;;4.32;1.10;;;;;;;;;;5056095;28;20379;-76
2022/01/10 00:38:23;;;;;;;3.10;1.48;;;;;;;;;;5055551;28;20400;-68
2022/01/10 00:40:51;;;;;;;6.90;1.52;;;;;;;;;;5051978;28;20075;-78
2022/01/10 00:43:28;;;;;;;3.05;1.40;;;;;;;;;;5053228;28;20429;-74
2022/01/10 00:45:55;;;;;;;4.85;1.50;;;;;;;;;;5054123;28;20354;-76
2022/01/10 00:48:21;;;;;;;2.50;1.38;;;;;;;;;;5056753;28;20390;-71
2022/01/10 00:50:47;;;;;;;4.55;1.27;;;;;;;;;;5056059;28;20064;-73
2022/01/10 00:53:14;;;;;;;3.08;1.25;;;;;;;;;;5054137;28;20478;-77
2022/01/10 00:55:42;;;;;;;1.77;1.23;;;;;;;;;;5053074;28;20119;-78
2022/01/10 00:58:08;;;;;;;2.83;1.60;;;;;;;;;;5054131;28;20052;-73
2022/01/10 01:00:34;;;;;;;4.60;1.65;;;;;;;;;;5052973;28;20055;-69
2022/01/10 01:03:01;;;;;;;5.82;1.23;;;;;;;;;;5064705;28;20170;-72
2022/01/10 01:05:30;;;;;;;3.50;1.20;;;;;;;;;;5061632;28;20434;-68
2022/01/10 01:08:00;;;;;;;1.83;1.30;;;;;;;;;;5055097;28;20143;-77
2022/01/10 01:16:14;;;;;;;5.93;1.60;;;;;;;;;;5039099;28;20394;-69
2022/01/10 01:24:07;;;;;;;1.75;1.10;;;;;;;;;;5051134;28;20115;-75
2022/01/10 01:26:39;;;;;;;7.82;1.10;;;;;;;;;;5056210;28;20049;-75
2022/01/10 01:29:09;;;;;;;4.32;1.40;;;;;;;;;;5060788;28;20150;-69
2022/01/10 01:31:35;;;;;;;3.60;1.30;;;;;;;;;;5055413;28;20049;-68
2022/01/10 01:34:02;;;;;;;2.08;1.20;;;;;;;;;;5054617;28;20052;-69
2022/01/10 01:36:30;;;;;;;2.38;1.30;;;;;;;;;;5058671;28;20126;-76
2022/01/10 01:38:57;;;;;;;4.70;1.20;;;;;;;;;;5056233;28;20041;-73
2022/01/10 01:43:52;;;;;;;1.40;1.10;;;;;;;;;;5051949;28;20048;-74
2022/01/10 01:46:19;;;;;;;1.48;1.02;;;;;;;;;;5056436;28;20052;-79
2022/01/10 01:48:46;;;;;;;3.08;1.40;;;;;;;;;;5051411;28;20497;-80
2022/01/10 01:51:12;;;;;;;3.50;1.45;;;;;;;;;;5058967;28;20052;-79
2022/01/10 01:53:39;;;;;;;1.88;1.20;;;;;;;;;;5056697;28;20268;-67
2022/01/10 01:56:07;;;;;;;2.75;1.00;;;;;;;;;;5041395;28;20048;-71
2022/01/10 01:58:36;;;;;;;1.80;1.08;;;;;;;;;;5061415;28;20256;-72
2022/01/10 02:01:03;;;;;;;3.65;1.20;;;;;;;;;;5054212;28;20062;-76
2022/01/10 02:03:33;;;;;;;7.35;1.38;;;;;;;;;;5054781;28;20045;-81
2022/01/10 02:06:03;;;;;;;1.63;1.13;;;;;;;;;;5064281;28;20432;-74
2022/01/10 02:08:29;;;;;;;2.38;1.00;;;;;;;;;;5040841;28;20098;-74
2022/01/10 02:10:57;;;;;;;1.63;1.20;;;;;;;;;;5056441;28;20055;-77
2022/01/10 02:13:23;;;;;;;2.17;1.30;;;;;;;;;;5075433;28;20568;-77
2022/01/10 02:15:58;;;;;;;3.70;1.15;;;;;;;;;;5058389;28;20037;-73
2022/01/10 02:18:25;;;;;;;2.58;1.33;;;;;;;;;;5061705;28;20489;-72
2022/01/10 02:20:52;;;;;;;2.45;1.45;;;;;;;;;;5059970;28;20101;-80
2022/01/10 02:23:19;;;;;;;1.20;1.02;;;;;;;;;;5051586;28;20044;-77
2022/01/10 02:25:46;;;;;;;5.28;1.08;;;;;;;;;;5056644;28;20061;-73
2022/01/10 02:28:12;;;;;;;3.92;1.17;;;;;;;;;;5056176;28;20053;-75
2022/01/10 02:30:40;;;;;;;5.35;1.45;;;;;;;;;;5055235;28;20052;-72
2022/01/10 02:33:07;;;;;;;3.30;1.40;;;;;;;;;;5051769;28;20591;-75
2022/01/10 02:35:43;;;;;;;2.25;1.20;;;;;;;;;;5049777;28;20139;-69
2022/01/10 02:38:09;;;;;;;2.05;1.25;;;;;;;;;;5050854;28;20918;-67
2022/01/10 02:40:35;;;;;;;1.85;1.30;;;;;;;;;;5051243;28;20048;-70
2022/01/10 02:43:07;;;;;;;1.95;1.27;;;;;;;;;;5055573;28;20056;-76
2022/01/10 02:45:33;;;;;;;1.95;1.10;;;;;;;;;;5037015;28;20071;-71
2022/01/10 02:48:00;;;;;;;2.72;1.25;;;;;;;;;;5050697;28;20055;-78
2022/01/10 02:50:26;;;;;;;3.55;1.30;;;;;;;;;;5055032;28;20480;-70
2022/01/10 02:52:52;;;;;;;2.97;1.40;;;;;;;;;;5054673;28;20056;-78
2022/01/10 02:55:18;;;;;;;1.60;1.20;;;;;;;;;;5034934;28;20048;-82
2022/01/10 02:57:45;;;;;;;3.17;1.40;;;;;;;;;;5067993;28;20078;-70
2022/01/10 03:00:18;;;;;;;3.22;1.20;;;;;;;;;;5054401;28;20109;-83
2022/01/10 03:02:48;;;;;;;1.67;1.20;;;;;;;;;;5054265;28;20057;-73
2022/01/10 03:05:15;;;;;;;1.58;1.23;;;;;;;;;;5039519;28;20056;-70
2022/01/10 03:07:41;;;;;;;1.20;1.10;;;;;;;;;;5058094;28;20079;-77
2022/01/10 03:10:08;;;;;;;3.63;1.27;;;;;;;;;;5051737;28;20056;-75
2022/01/10 03:12:35;;;;;;;3.35;1.20;;;;;;;;;;5057074;28;20127;-70
2022/01/10 03:15:04;;;;;;;1.60;1.08;;;;;;;;;;5049976;28;20049;-71
2022/01/10 03:17:30;;;;;;;1.55;1.10;;;;;;;;;;5040786;28;20202;-74
2022/01/10 03:19:56;;;;;;;1.92;1.20;;;;;;;;;;5053304;28;20048;-74
2022/01/10 03:22:23;;;;;;;2.13;1.23;;;;;;;;;;5055002;28;20119;-70
2022/01/10 03:24:50;;;;;;;1.92;1.10;;;;;;;;;;5053182;28;20056;-72
2022/01/10 03:27:16;;;;;;;2.25;1.20;;;;;;;;;;5054463;28;20147;-77
2022/01/10 03:29:42;;;;;;;1.70;1.13;;;;;;;;;;5058639;28;20795;-73
2022/01/10 03:32:08;;;;;;;3.03;1.30;;;;;;;;;;5037124;28;20067;-70
2022/01/10 03:34:35;;;;;;;4.40;1.20;;;;;;;;;;5053278;28;20045;-68
2022/01/10 03:37:01;;;;;;;2.50;1.20;;;;;;;;;;5049850;28;20139;-72
2022/01/10 03:39:27;;;;;;;4.20;1.20;;;;;;;;;;5054667;28;20056;-73
2022/01/10 03:41:54;;;;;;;4.75;1.10;;;;;;;;;;5050947;28;20060;-70
2022/01/10 03:44:20;;;;;;;3.75;1.00;;;;;;;;;;5050436;28;20057;-76
2022/01/10 03:46:47;;;;;;;5.32;1.30;;;;;;;;;;5051115;28;20048;-84
2022/01/10 03:49:14;;;;;;;7.38;1.48;;;;;;;;;;5060329;28;20061;-80
2022/01/10 03:51:41;;;;;;;2.20;1.17;;;;;;;;;;5056559;28;20054;-73
2022/01/10 03:54:07;;;;;;;1.60;1.10;;;;;;;;;;5053241;28;20275;-78
2022/01/10 03:56:35;;;;;;;5.28;1.10;;;;;;;;;;5053870;28;20048;-73
2022/01/10 03:59:02;;;;;;;2.28;1.10;;;;;;;;;;5054636;28;20056;-74
2022/01/10 04:01:28;;;;;;;5.00;1.15;;;;;;;;;;5054239;28;20048;-80
2022/01/10 04:03:54;;;;;;;1.58;1.13;;;;;;;;;;5053080;28;20045;-73
2022/01/10 04:06:20;;;;;;;1.85;1.15;;;;;;;;;;5055033;28;20038;-78
2022/01/10 04:08:47;;;;;;;1.80;1.20;;;;;;;;;;5058190;28;20060;-76
2022/01/10 04:11:13;;;;;;;3.25;1.10;;;;;;;;;;5052722;28;20062;-73
2022/01/10 04:13:40;;;;;;;1.88;1.10;;;;;;;;;;5047622;28;20072;-73
2022/01/10 04:16:07;;;;;;;1.40;1.08;;;;;;;;;;5056311;28;20052;-76
2022/01/10 04:18:33;;;;;;;2.17;1.20;;;;;;;;;;5038626;28;20060;-75
2022/01/10 04:20:59;;;;;;;1.25;1.10;;;;;;;;;;5057122;28;20576;-71
2022/01/10 04:23:26;;;;;;;1.67;1.02;;;;;;;;;;5055747;28;20041;-73
2022/01/10 04:25:52;;;;;;;1.85;1.00;;;;;;;;;;5056545;28;20136;-71
2022/01/10 04:28:18;;;;;;;1.80;1.00;;;;;;;;;;5056851;28;20083;-78
2022/01/10 04:30:45;;;;;;;1.67;1.08;;;;;;;;;;5052544;28;20044;-78
2022/01/10 04:33:17;;;;;;;2.50;1.20;;;;;;;;;;5037479;28;20060;-76
2022/01/10 04:35:43;;;;;;;1.63;1.17;;;;;;;;;;5051563;28;20048;-68
2022/01/10 04:38:10;;;;;;;2.92;1.35;;;;;;;;;;5056458;28;20056;-72
2022/01/10 04:40:36;;;;;;;1.63;1.00;;;;;;;;;;5054820;28;20071;-78
2022/01/10 04:43:03;;;;;;;1.58;1.10;;;;;;;;;;5057362;28;20102;-74
2022/01/10 04:45:29;;;;;;;1.48;1.08;;;;;;;;;;5051474;28;20122;-82
2022/01/10 04:47:55;;;;;;;0.80;0.80;;;;;;;;;;5061707;28;20233;-76
2022/01/10 04:52:50;;;;;;;1.20;1.00;;;;;;;;;;5058519;28;20516;-75
2022/01/10 04:55:18;;;;;;;2.15;1.20;;;;;;;;;;5041356;28;20056;-72
2022/01/10 04:57:45;;;;;;;3.28;1.10;;;;;;;;;;5062261;28;20076;-71
2022/01/10 05:00:14;;;;;;;1.90;1.17;;;;;;;;;;5057346;28;20347;-67
2022/01/10 05:02:43;;;;;;;2.60;1.15;;;;;;;;;;5047286;28;20053;-70
2022/01/10 05:05:09;;;;;;;1.48;1.33;;;;;;;;;;5045890;28;20074;-70
2022/01/10 05:07:35;;;;;;;4.10;1.10;;;;;;;;;;5070858;28;20056;-70
2022/01/10 05:10:01;;;;;;;1.23;0.80;;;;;;;;;;5056133;28;20107;-72
2022/01/10 05:12:28;;;;;;;3.00;1.15;;;;;;;;;;5040771;28;20044;-70
2022/01/10 05:14:55;;;;;;;1.92;1.20;;;;;;;;;;5058678;28;20139;-70
2022/01/10 05:17:24;;;;;;;2.47;1.10;;;;;;;;;;5056208;28;20055;-69
2022/01/10 05:19:50;;;;;;;1.58;1.20;;;;;;;;;;5029979;28;20044;-70
2022/01/10 05:22:17;;;;;;;3.13;1.00;;;;;;;;;;5050966;28;20512;-71
2022/01/10 05:24:43;;;;;;;2.80;1.00;;;;;;;;;;5050793;28;20674;-69
2022/01/10 05:27:10;;;;;;;1.52;0.88;;;;;;;;;;5046631;28;20911;-70
2022/01/10 05:29:36;;;;;;;2.92;1.08;;;;;;;;;;5054546;28;20534;-69
2022/01/10 05:32:03;;;;;;;1.17;0.95;;;;;;;;;;5058731;28;20060;-70
2022/01/10 05:34:30;;;;;;;1.20;0.80;;;;;;;;;;5059201;28;20128;-70
2022/01/10 05:36:56;;;;;;;0.95;0.80;;;;;;;;;;5060320;28;20074;-71
2022/01/10 05:39:22;;;;;;;2.28;1.10;;;;;;;;;;5060088;28;20131;-71
2022/01/10 05:41:49;;;;;;;1.90;1.20;;;;;;;;;;5060114;28;20056;-73
2022/01/10 05:44:14;;;;;;;2.15;1.00;;;;;;;;;;5042449;28;20166;-71
2022/01/10 05:46:42;;;;;;;2.25;1.00;;;;;;;;;;5053498;28;21229;-71
2022/01/10 05:49:12;;;;;;;1.60;0.90;;;;;;;;;;5042215;28;20501;-70
2022/01/10 05:51:38;;;;;;;1.55;0.90;;;;;;;;;;5040854;28;20226;-70
2022/01/10 05:54:06;;;;;;;1.92;1.15;;;;;;;;;;5054615;28;20149;-70
2022/01/10 05:56:34;;;;;;;1.52;1.00;;;;;;;;;;5049801;28;20493;-71
2022/01/10 05:59:01;;;;;;;2.78;1.00;;;;;;;;;;5057409;28;20036;-71
2022/01/10 06:01:28;;;;;;;2.03;1.00;;;;;;;;;;5029034;28;20132;-73
2022/01/10 06:03:54;;;;;;;3.58;1.40;;;;;;;;;;5050487;28;20136;-70
2022/01/10 06:06:21;;;;;;;2.65;1.17;;;;;;;;;;5053488;28;20036;-71
2022/01/10 06:08:47;;;;;;;2.60;1.20;;;;;;;;;;5042262;28;20053;-69
2022/01/10 06:11:14;;;;;;;3.35;1.10;;;;;;;;;;5052177;28;20251;-74
2022/01/10 06:13:41;;;;;;;2.28;1.15;;;;;;;;;;5052354;28;20478;-70
2022/01/10 06:16:07;;;;;;;3.47;1.10;;;;;;;;;;5057065;28;20165;-71
2022/01/10 06:18:33;;;;;;;1.42;1.05;;;;;;;;;;5057522;28;20076;-71
2022/01/10 06:21:00;;;;;;;2.72;1.10;;;;;;;;;;5059052;28;20446;-72
2022/01/10 06:23:26;;;;;;;1.13;0.90;;;;;;;;;;5045765;28;20787;-70
2022/01/10 06:25:52;;;;;;;1.58;1.23;;;;;;;;;;5052837;28;20063;-73
2022/01/10 06:28:19;;;;;;;2.58;0.90;;;;;;;;;;5051702;28;20048;-72
2022/01/10 06:30:46;;;;;;;1.90;1.30;;;;;;;;;;5037315;28;20132;-72
2022/01/10 06:33:12;;;;;;;2.03;1.10;;;;;;;;;;5056920;28;20048;-72
2022/01/10 06:35:39;;;;;;;6.35;1.77;;;;;;;;;;5054304;28;20171;-71
2022/01/10 06:38:05;;;;;;;1.05;0.90;;;;;;;;;;5054248;28;20062;-74
2022/01/10 06:40:31;;;;;;;3.58;1.20;;;;;;;;;;5054653;28;20042;-73
2022/01/10 06:42:57;;;;;;;4.50;0.90;;;;;;;;;;5053803;28;20052;-72
2022/01/10 06:45:24;;;;;;;3.72;1.27;;;;;;;;;;5055579;28;20067;-74
2022/01/10 06:47:51;;;;;;;4.57;1.00;;;;;;;;;;5052274;28;20040;-73
2022/01/10 06:50:18;;;;;;;1.45;1.00;;;;;;;;;;5037805;28;20061;-74
2022/01/10 06:52:45;;;;;;;2.58;0.80;;;;;;;;;;5053056;28;20083;-72
2022/01/10 06:55:11;;;;;;;3.33;1.08;;;;;;;;;;5052890;28;20056;-81
2022/01/10 06:57:37;;;;;;;1.45;1.10;;;;;;;;;;5055766;28;20093;-78
2022/01/10 07:00:06;;;;;;;2.75;0.95;;;;;;;;;;5054111;28;20058;-79
2022/01/10 07:02:32;;;;;;;1.45;1.05;;;;;;;;;;5051678;28;20101;-75
2022/01/10 07:04:58;;;;;;;1.42;1.00;;;;;;;;;;5047318;28;20053;-77
2022/01/10 07:07:24;;;;;;;2.92;1.30;;;;;;;;;;5053305;28;20060;-76
2022/01/10 07:09:50;;;;;;;3.80;1.15;;;;;;;;;;5053121;28;20516;-80
2022/01/10 07:12:17;;;;;;;3.13;0.95;;;;;;;;;;5053962;28;20049;-77
2022/01/10 07:14:43;;;;;;;2.88;0.82;;;;;;;;;;5057735;28;20063;-79
2022/01/10 07:17:10;;;;;;;6.63;2.15;;;;;;;;;;5053049;28;20063;-77
2022/01/10 07:19:36;;;;;;;6.47;1.08;;;;;;;;;;5033916;28;20060;-76
2022/01/10 07:22:03;;;;;;;3.03;1.17;;;;;;;;;;5034124;28;20045;-75
2022/01/10 07:24:32;;;;;;;3.45;1.15;;;;;;;;;;5056915;28;20060;-79
2022/01/10 07:26:59;;;;;;;3.17;0.95;;;;;;;;;;5057421;28;20102;-75
2022/01/10 07:29:25;;;;;;;3.28;1.00;;;;;;;;;;5047841;28;20055;-73
2022/01/10 07:31:51;;;;;;;2.67;1.10;;;;;;;;;;5049228;28;20068;-77
2022/01/10 07:34:18;;;;;;;2.78;0.93;;;;;;;;;;5055781;28;20476;-77
2022/01/10 07:36:44;;;;;;;6.90;1.15;;;;;;;;;;5056507;28;20049;-79
2022/01/10 07:39:12;;;;;;;3.90;1.20;;;;;;;;;;5051329;28;20059;-77
2022/01/10 07:41:38;;;;;;;1.30;0.93;;;;;;;;;;5053146;28;20106;-69
2022/01/10 07:44:04;;;;;;;1.25;1.02;;;;;;;;;;5050735;28;20059;-73
2022/01/10 07:46:31;;;;;;;0.93;0.80;;;;;;;;;;5048829;28;20048;-76
2022/01/10 07:48:57;;;;;;;1.33;1.00;;;;;;;;;;5052343;28;20156;-77
2022/01/10 07:51:26;;;;;;;2.08;0.90;;;;;;;;;;5049329;28;20689;-77
2022/01/10 07:53:53;;;;;;;1.50;1.02;;;;;;;;;;5039989;28;20083;-76
2022/01/10 07:56:19;;;;;;;1.60;1.08;;;;;;;;;;5059415;28;20098;-73
2022/01/10 07:58:50;;;;;;;6.43;1.33;;;;;;;;;;5058043;28;20048;-74
2022/01/10 08:01:17;;;;;;;2.00;0.98;;;;;;;;;;5057889;28;20538;-72
2022/01/10 08:03:43;;;;;;;4.30;1.23;;;;;;;;;;5059115;28;20091;-74
2022/01/10 08:06:10;;;;;;;2.30;0.90;;;;;;;;;;5059139;28;20135;-74
2022/01/10 08:08:36;;;;;;;3.42;1.17;;;;;;;;;;5059111;28;20048;-73
2022/01/10 08:11:03;;;;;;;6.80;1.10;;;;;;;;;;5058647;28;20148;-73
2022/01/10 08:13:29;;;;;;;1.95;1.00;;;;;;;;;;5055456;28;20141;-74
2022/01/10 08:15:55;;;;;;;0.88;0.77;;;;;;;;;;5056234;28;20075;-75
2022/01/10 08:18:22;;;;;;;2.22;1.00;;;;;;;;;;5059471;28;20449;-74
2022/01/10 08:20:48;;;;;;;1.38;1.27;;;;;;;;;;5060932;28;20067;-73
2022/01/10 08:23:15;;;;;;;3.47;0.90;;;;;;;;;;5064468;28;20049;-74
2022/01/10 08:25:41;;;;;;;1.73;1.15;;;;;;;;;;5053482;28;20060;-74
2022/01/10 08:28:08;;;;;;;1.27;0.98;;;;;;;;;;5050078;28;20129;-74
2022/01/10 08:30:35;;;;;;;2.47;1.05;;;;;;;;;;5035408;28;20044;-75
2022/01/10 08:33:02;;;;;;;2.30;0.90;;;;;;;;;;5023264;28;20060;-76
2022/01/10 08:35:28;;;;;;;3.30;1.10;;;;;;;;;;5037281;28;20057;-79
2022/01/10 08:37:54;;;;;;;1.45;0.95;;;;;;;;;;5039731;28;20052;-79
2022/01/10 08:40:21;;;;;;;4.38;1.10;;;;;;;;;;5044621;28;20053;-69
2022/01/10 08:42:47;;;;;;;4.93;1.02;;;;;;;;;;5038796;28;20083;-78
2022/01/10 08:45:13;;;;;;;1.73;1.08;;;;;;;;;;5035678;28;20060;-78
2022/01/10 08:47:39;;;;;;;5.95;1.50;;;;;;;;;;5027553;28;20161;-72
2022/01/10 08:50:09;;;;;;;6.32;1.30;;;;;;;;;;5038103;28;20055;-79
2022/01/10 08:52:35;;;;;;;2.97;1.00;;;;;;;;;;5011327;28;20037;-75
2022/01/10 08:55:01;;;;;;;4.70;0.98;;;;;;;;;;5040847;28;20056;-79
2022/01/10 08:57:27;;;;;;;7.72;1.00;;;;;;;;;;5030916;28;20826;-79
2022/01/10 08:59:53;;;;;;;0.93;0.80;;;;;;;;;;5016496;28;20418;-72
2022/01/10 09:02:24;;;;;;;1.20;0.98;;;;;;;;;;5034434;28;20111;-75
2022/01/10 09:04:53;;;;;;;2.13;1.10;;;;;;;;;;5034404;28;20069;-77
2022/01/10 09:07:19;;;;;;;0.90;0.70;;;;;;;;;;5036347;28;20048;-80
2022/01/10 09:09:46;;;;;;;5.68;1.00;;;;;;;;;;5033487;28;20551;-78
2022/01/10 09:12:12;;;;;;;2.78;0.88;;;;;;;;;;5029457;28;20148;-72
2022/01/10 09:14:38;;;;;;;1.02;0.90;;;;;;;;;;5037981;28;20059;-82
2022/01/10 09:17:05;;;;;;;1.30;0.80;;;;;;;;;;5033963;28;20060;-76
2022/01/10 09:19:31;;;;;;;0.80;0.70;;;;;;;;;;5024778;28;20052;-82
2022/01/10 09:21:58;;;;;;;3.53;1.10;;;;;;;;;;5037016;28;20502;-74
2022/01/10 09:24:25;;;;;;;5.00;0.80;;;;;;;;;;5038604;28;20437;-74
2022/01/10 09:26:52;;;;;;;1.13;0.90;;;;;;;;;;5034410;28;20147;-73
2022/01/10 09:29:19;;;;;;;2.33;0.73;;;;;;;;;;5032870;28;20547;-75
2022/01/10 09:31:45;;;;;;;3.08;1.00;;;;;;;;;;5037698;28;20052;-74
2022/01/10 09:34:11;;;;;;;1.00;0.82;;;;;;;;;;5023044;28;20059;-74
2022/01/10 09:36:38;;;;;;;3.22;1.52;;;;;;;;;;5039016;28;20056;-77
2022/01/10 09:39:05;;;;;;;2.33;0.90;;;;;;;;;;5041487;28;20074;-74
2022/01/10 09:41:31;;;;;;;3.28;1.10;;;;;;;;;;5042452;28;20052;-74
2022/01/10 09:44:02;;;;;;;3.03;1.33;;;;;;;;;;5038260;28;20644;-73
2022/01/10 09:46:30;;;;;;;1.75;1.00;;;;;;;;;;5034570;28;20052;-75
2022/01/10 09:49:01;;;;;;;2.65;0.80;;;;;;;;;;5041101;28;20671;-76
2022/01/10 09:51:29;;;;;;;2.80;0.90;;;;;;;;;;5033145;28;20052;-74
2022/01/10 09:53:57;;;;;;;2.80;1.20;;;;;;;;;;5027164;28;20539;-79
2022/01/10 09:56:24;;;;;;;1.65;0.75;;;;;;;;;;5030997;28;20056;-74
2022/01/10 09:58:53;;;;;;;3.80;1.13;;;;;;;;;;5032444;28;20476;-79
2022/01/10 10:01:19;;;;;;;2.15;1.00;;;;;;;;;;5017859;28;20461;-78
2022/01/10 10:03:47;;;;;;;1.17;0.75;;;;;;;;;;5035395;28;20413;-78
2022/01/10 10:06:15;;;;;;;3.47;0.98;;;;;;;;;;5031748;28;20055;-78
2022/01/10 10:08:42;;;;;;;1.27;1.00;;;;;;;;;;5037846;28;20058;-71
2022/01/10 10:11:08;;;;;;;3.20;0.80;;;;;;;;;;5038403;28;20052;-72
2022/01/10 10:13:52;;;;;;;2.15;0.85;;;;;;;;;;5031559;28;20052;-75
2022/01/10 10:16:18;;;;;;;0.70;0.70;;;;;;;;;;5028274;28;20048;-74
2022/01/10 10:18:47;;;;;;;4.65;0.90;;;;;;;;;;5038979;28;20067;-69
2022/01/10 10:21:16;;;;;;;3.80;1.20;;;;;;;;;;5035748;28;20477;-72
2022/01/10 10:23:46;;;;;;;2.08;0.90;;;;;;;;;;5032107;28;20048;-74
2022/01/10 10:26:19;;;;;;;4.70;1.10;;;;;;;;;;5024684;28;20583;-70
2022/01/10 10:28:48;;;;;;;1.08;0.85;;;;;;;;;;5030775;28;20133;-72
2022/01/10 10:31:33;;;;;;;10.77;1.10;;;;;;;;;;5034440;28;20044;-71
2022/01/10 10:34:04;;;;;;;5.60;0.90;;;;;;;;;;5036882;28;20367;-73
2022/01/10 10:36:34;;;;;;;2.90;0.88;;;;;;;;;;5026897;28;20048;-72
2022/01/10 10:39:06;;;;;;;1.50;0.90;;;;;;;;;;5037375;28;20072;-74
2022/01/10 10:41:36;;;;;;;7.20;1.00;;;;;;;;;;5015622;28;20067;-75
2022/01/10 10:44:03;;;;;;;5.05;0.82;;;;;;;;;;5034296;28;20041;-73
2022/01/10 10:46:29;;;;;;;6.90;1.10;;;;;;;;;;5030429;28;20060;-75
2022/01/10 10:49:04;;;;;;;5.10;1.20;;;;;;;;;;5043990;28;20681;-78
2022/01/10 10:51:36;;;;;;;1.95;0.80;;;;;;;;;;5042728;28;20526;-74
2022/01/10 10:54:07;;;;;;;1.17;0.60;;;;;;;;;;5040413;28;20136;-75
2022/01/10 10:56:36;;;;;;;1.92;0.95;;;;;;;;;;5028759;28;20086;-73
2022/01/10 10:59:04;;;;;;;1.58;0.80;;;;;;;;;;5036279;28;20759;-73
2022/01/10 11:01:31;;;;;;;1.80;0.65;;;;;;;;;;5032812;28;20057;-76
2022/01/10 11:03:57;;;;;;;2.63;0.80;;;;;;;;;;5029842;28;20064;-70
2022/01/10 11:06:27;;;;;;;3.38;0.90;;;;;;;;;;5026931;28;20048;-74
2022/01/10 11:08:53;;;;;;;3.28;1.00;;;;;;;;;;5033048;28;20469;-73
2022/01/10 11:11:26;;;;;;;5.68;0.70;;;;;;;;;;5042492;28;20152;-75
2022/01/10 11:13:56;;;;;;;3.88;0.70;;;;;;;;;;5041625;28;20059;-72
2022/01/10 11:16:23;;;;;;;1.00;0.68;;;;;;;;;;5035608;28;20052;-75
2022/01/10 11:18:49;;;;;;;0.88;0.57;;;;;;;;;;5041453;28;20155;-74
2022/01/10 11:21:16;;;;;;;2.17;0.85;;;;;;;;;;5033004;28;20453;-71
2022/01/10 11:23:45;;;;;;;2.97;1.30;;;;;;;;;;5034759;28;20056;-74
2022/01/10 11:26:14;;;;;;;1.65;0.55;;;;;;;;;;5031416;28;20171;-76
2022/01/10 11:28:52;;;;;;;5.95;0.80;;;;;;;;;;5034810;28;20044;-76
2022/01/10 11:31:24;;;;;;;4.93;0.68;;;;;;;;;;5032282;28;20055;-77
2022/01/10 11:33:52;;;;;;;1.10;0.80;;;;;;;;;;5042148;28;20611;-76
2022/01/10 11:36:23;;;;;;;4.47;1.05;;;;;;;;;;5036244;28;20083;-79
2022/01/10 11:38:53;;;;;;;2.38;0.80;;;;;;;;;;5036799;28;20432;-77
2022/01/10 11:41:21;;;;;;;3.47;0.73;;;;;;;;;;5038995;28;20057;-79
2022/01/10 11:44:11;;;;;;;4.57;1.10;;;;;;;;;;5037417;28;20056;-78
2022/01/10 11:46:51;;;;;;;4.30;1.02;;;;;;;;;;5020729;28;20056;-80
2022/01/10 11:49:20;;;;;;;2.08;1.10;;;;;;;;;;5024099;28;20073;-78
2022/01/10 11:51:49;;;;;;;2.63;1.17;;;;;;;;;;5024171;28;20194;-81
2022/01/10 11:54:30;;;;;;;3.90;1.10;;;;;;;;;;5035862;28;21308;-80
2022/01/10 11:57:03;;;;;;;10.73;1.38;;;;;;;;;;5027370;28;20064;-80
2022/01/10 11:59:34;;;;;;;11.93;1.17;;;;;;;;;;5035679;28;20040;-82
2022/01/10 12:02:10;;;;;;;3.55;1.20;;;;;;;;;;5036266;28;20110;-80
2022/01/10 12:04:48;;;;;;;4.38;1.33;;;;;;;;;;5035336;28;20048;-77
2022/01/10 12:07:18;;;;;;;6.20;1.13;;;;;;;;;;5024994;28;20133;-73
2022/01/10 12:09:45;;;;;;;5.60;1.60;;;;;;;;;;5033184;28;20296;-76
2022/01/10 12:12:14;;;;;;;4.93;1.08;;;;;;;;;;5026273;28;20230;-79
2022/01/10 12:14:42;;;;;;;2.20;1.00;;;;;;;;;;5033567;28;20630;-75
2022/01/10 12:17:09;;;;;;;7.50;1.48;;;;;;;;;;5029884;28;20044;-77
2022/01/10 12:19:37;;;;;;;3.10;1.02;;;;;;;;;;5034527;28;20040;-75
2022/01/10 12:22:07;;;;;;;6.45;1.58;;;;;;;;;;5035497;28;20059;-76
2022/01/10 12:24:38;;;;;;;8.65;1.48;;;;;;;;;;5036664;28;20496;-80
2022/01/10 12:27:07;;;;;;;8.70;1.65;;;;;;;;;;5031631;28;20080;-79
2022/01/10 12:29:33;;;;;;;4.32;1.20;;;;;;;;;;5035722;28;20147;-77
2022/01/10 12:32:01;;;;;;;7.55;1.17;;;;;;;;;;5031087;28;20146;-75
2022/01/10 12:34:27;;;;;;;3.42;1.20;;;;;;;;;;5035261;28;21273;-77
2022/01/10 12:36:54;;;;;;;3.47;1.30;;;;;;;;;;5032307;28;21421;-72
2022/01/10 12:39:26;;;;;;;7.10;1.63;;;;;;;;;;5033659;28;20804;-77
2022/01/10 12:41:53;;;;;;;4.00;1.23;;;;;;;;;;5017355;28;20064;-75
2022/01/10 12:44:20;;;;;;;3.33;1.10;;;;;;;;;;5034015;28;20048;-74
2022/01/10 12:46:46;;;;;;;6.00;1.30;;;;;;;;;;5030647;28;20743;-72
2022/01/10 12:49:15;;;;;;;6.38;0.90;;;;;;;;;;5029881;28;20063;-72
2022/01/10 12:51:54;;;;;;;5.95;1.10;;;;;;;;;;5026317;28;20052;-75
2022/01/10 12:54:20;;;;;;;4.30;0.90;;;;;;;;;;5015820;28;20064;-73
2022/01/10 12:56:48;;;;;;;2.90;1.30;;;;;;;;;;5024272;28;20052;-74
2022/01/10 12:59:17;;;;;;;4.32;1.30;;;;;;;;;;5032747;28;20282;-71
2022/01/10 13:01:44;;;;;;;4.43;1.10;;;;;;;;;;5026554;28;20117;-72
2022/01/10 13:04:11;;;;;;;6.82;1.70;;;;;;;;;;5021507;28;20060;-74
2022/01/10 13:06:42;;;;;;;2.53;1.00;;;;;;;;;;5028093;28;20056;-73
2022/01/10 13:09:09;;;;;;;5.63;1.33;;;;;;;;;;5036041;28;20044;-74
2022/01/10 13:11:50;;;;;;;3.05;1.10;;;;;;;;;;5033574;28;20041;-73
2022/01/10 13:14:20;;;;;;;5.60;1.40;;;;;;;;;;5033533;28;20135;-71
2022/01/10 13:16:57;;;;;;;3.10;1.40;;;;;;;;;;5028677;28;20052;-69
2022/01/10 13:19:28;;;;;;;6.18;2.85;;;;;;;;;;5034630;28;20678;-74
2022/01/10 13:21:58;;;;;;;11.45;3.50;;;;;;;;;;5028413;28;20906;-74
2022/01/10 13:24:27;;;;;;;8.23;3.22;;;;;;;;;;5035292;28;20889;-75
2022/01/10 13:26:59;;;;;;;3.92;1.10;;;;;;;;;;5029974;28;20045;-75
2022/01/10 13:29:31;;;;;;;3.30;0.98;;;;;;;;;;5030772;28;20064;-74
2022/01/10 13:32:23;;;;;;;1.92;0.55;;;;;;;;;;5040611;28;20056;-76
2022/01/10 13:34:52;;;;;;;3.78;0.90;;;;;;;;;;5040743;28;20094;-78
2022/01/10 13:37:35;;;;;;;7.32;1.48;;;;;;;;;;5038870;28;20181;-74
2022/01/10 13:40:08;;;;;;;1.88;0.60;;;;;;;;;;5045365;28;20575;-72
2022/01/10 13:42:39;;;;;;;1.75;0.80;;;;;;;;;;5031978;28;20130;-75
2022/01/10 13:45:07;;;;;;;3.42;0.73;;;;;;;;;;5044045;28;20052;-74
2022/01/10 13:48:11;;;;;;;2.13;0.70;;;;;;;;;;5035520;28;20135;-78
2022/01/10 13:50:43;;;;;;;3.63;0.55;;;;;;;;;;5044321;28;20078;-72
2022/01/10 13:53:15;;;;;;;3.22;0.60;;;;;;;;;;5054898;28;20118;-74
2022/01/10 13:56:15;;;;;;;0.88;0.55;;;;;;;;;;5037675;28;20048;-69
2022/01/10 13:58:47;;;;;;;3.85;0.82;;;;;;;;;;5042026;28;20045;-73
2022/01/10 14:01:19;;;;;;;1.08;0.75;;;;;;;;;;5037879;28;20122;-76
2022/01/10 14:03:47;;;;;;;1.48;0.70;;;;;;;;;;5035156;28;20138;-70
2022/01/10 14:06:18;;;;;;;1.45;0.52;;;;;;;;;;5019536;28;20525;-72
2022/01/10 14:09:00;;;;;;;2.63;0.60;;;;;;;;;;5040625;28;20563;-68
2022/01/10 14:11:28;;;;;;;2.35;0.60;;;;;;;;;;5040753;28;20048;-73
2022/01/10 14:13:57;;;;;;;3.88;0.77;;;;;;;;;;5042254;28;20458;-72
2022/01/10 14:16:34;;;;;;;11.63;0.95;;;;;;;;;;5041697;28;20171;-75
2022/01/10 14:19:04;;;;;;;6.63;0.80;;;;;;;;;;5041331;28;20048;-78
2022/01/10 14:21:30;;;;;;;2.00;0.60;;;;;;;;;;5041795;28;20406;-73
2022/01/10 14:23:56;;;;;;;2.92;0.82;;;;;;;;;;5040098;28;20059;-80
2022/01/10 14:26:23;;;;;;;3.55;0.60;;;;;;;;;;5037597;28;20564;-70
2022/01/10 14:28:50;;;;;;;1.55;0.65;;;;;;;;;;5036660;28;20367;-74
2022/01/10 14:31:18;;;;;;;4.82;0.55;;;;;;;;;;5039057;28;20557;-74
2022/01/10 14:33:46;;;;;;;1.33;0.40;;;;;;;;;;5022687;28;20059;-72
2022/01/10 14:36:15;;;;;;;3.40;0.73;;;;;;;;;;5036117;28;20430;-72
2022/01/10 14:38:42;;;;;;;0.77;0.65;;;;;;;;;;5040374;28;20040;-80
2022/01/10 14:41:08;;;;;;;1.08;0.60;;;;;;;;;;5039480;28;20044;-72
2022/01/10 14:43:35;;;;;;;5.18;0.60;;;;;;;;;;5041961;28;20056;-74
2022/01/10 14:46:01;;;;;;;0.85;0.60;;;;;;;;;;5038827;28;20114;-76
2022/01/10 14:48:29;;;;;;;0.90;0.50;;;;;;;;;;5041111;28;20223;-75
2022/01/10 14:50:56;;;;;;;4.47;0.75;;;;;;;;;;5042657;28;21077;-79
2022/01/10 14:53:22;;;;;;;0.57;0.57;;;;;;;;;;5040801;28;20133;-75
2022/01/10 14:55:50;;;;;;;3.13;0.50;;;;;;;;;;5033717;28;20052;-78
2022/01/10 14:58:17;;;;;;;2.72;0.60;;;;;;;;;;5038769;28;20350;-75
2022/01/10 15:00:44;;;;;;;2.95;0.50;;;;;;;;;;5037860;28;20068;-72
2022/01/10 15:03:12;;;;;;;1.48;0.57;;;;;;;;;;5037519;28;20114;-74
2022/01/10 15:05:39;;;;;;;0.77;0.60;;;;;;;;;;5033121;28;20979;-79